Terminal Aerodrome Forecast
Issued by NWS Des Moines, IA

Home | Current Version | Previous Version | Text Only | Print | Product List | Glossary On
Versions: 1 2 3 4 5 6 7 8 9 10 11 12 13 14 15 16 17 18 19 20 21 22 23 24 25 26 27 28 29 30
365
FTUS43 KDMX 101722
TAFDSM
TAF
KDSM 101722Z 1018/1118 14008KT 4SM -SN SCT008 OVC035
      TEMPO 1018/1020 1 1/2SM -SN OVC012
     FM102000 14008KT P6SM VCSH OVC040
     FM110000 13009KT 4SM -SN OVC025
     FM111000 14009KT P6SM OVC030
     FM111500 16006KT P6SM OVC007=

USA.gov is the U.S. government's official web portal to all federal, state and local government web resources and services.